sensor_id;sensor_type;location;lat;lon;timestamp;P1;durP1;ratioP1;P2;durP2;ratioP2
72951;SDS011;61102;51.956;5.878;2023-05-10T00:00:35;15.32;;;5.95;;
72951;SDS011;61102;51.956;5.878;2023-05-10T00:03:01;13.60;;;6.07;;
72951;SDS011;61102;51.956;5.878;2023-05-10T00:05:30;13.93;;;6.20;;
72951;SDS011;61102;51.956;5.878;2023-05-10T00:07:57;14.07;;;6.60;;
72951;SDS011;61102;51.956;5.878;2023-05-10T00:10:23;14.15;;;6.72;;
72951;SDS011;61102;51.956;5.878;2023-05-10T00:12:50;14.43;;;6.63;;
72951;SDS011;61102;51.956;5.878;2023-05-10T00:15:16;13.63;;;6.28;;
72951;SDS011;61102;51.956;5.878;2023-05-10T00:17:42;15.30;;;7.15;;
72951;SDS011;61102;51.956;5.878;2023-05-10T00:20:09;13.50;;;6.45;;
72951;SDS011;61102;51.956;5.878;2023-05-10T00:22:36;15.38;;;7.47;;
72951;SDS011;61102;51.956;5.878;2023-05-10T00:25:02;14.65;;;6.93;;
72951;SDS011;61102;51.956;5.878;2023-05-10T00:27:28;15.23;;;7.22;;
72951;SDS011;61102;51.956;5.878;2023-05-10T00:29:55;15.20;;;6.75;;
72951;SDS011;61102;51.956;5.878;2023-05-10T00:32:22;14.88;;;6.68;;
72951;SDS011;61102;51.956;5.878;2023-05-10T00:34:48;14.57;;;6.97;;
72951;SDS011;61102;51.956;5.878;2023-05-10T00:37:14;14.95;;;6.65;;
72951;SDS011;61102;51.956;5.878;2023-05-10T00:39:40;14.30;;;6.90;;
72951;SDS011;61102;51.956;5.878;2023-05-10T00:42:07;16.95;;;7.30;;
72951;SDS011;61102;51.956;5.878;2023-05-10T00:44:33;16.90;;;7.28;;
72951;SDS011;61102;51.956;5.878;2023-05-10T00:46:59;14.48;;;6.70;;
72951;SDS011;61102;51.956;5.878;2023-05-10T00:49:26;13.45;;;5.88;;
72951;SDS011;61102;51.956;5.878;2023-05-10T00:54:23;13.43;;;5.57;;
72951;SDS011;61102;51.956;5.878;2023-05-10T00:56:50;14.18;;;6.22;;
72951;SDS011;61102;51.956;5.878;2023-05-10T00:59:17;14.70;;;6.30;;
72951;SDS011;61102;51.956;5.878;2023-05-10T01:01:47;13.45;;;5.88;;
72951;SDS011;61102;51.956;5.878;2023-05-10T01:04:13;14.82;;;6.80;;
72951;SDS011;61102;51.956;5.878;2023-05-10T01:06:41;14.88;;;6.30;;
72951;SDS011;61102;51.956;5.878;2023-05-10T01:09:08;15.27;;;6.75;;
72951;SDS011;61102;51.956;5.878;2023-05-10T01:11:34;14.95;;;6.65;;
72951;SDS011;61102;51.956;5.878;2023-05-10T01:14:02;13.68;;;6.00;;
72951;SDS011;61102;51.956;5.878;2023-05-10T01:16:29;14.05;;;6.15;;
72951;SDS011;61102;51.956;5.878;2023-05-10T01:19:01;16.95;;;7.28;;
72951;SDS011;61102;51.956;5.878;2023-05-10T01:24:40;17.17;;;7.07;;
72951;SDS011;61102;51.956;5.878;2023-05-10T01:27:30;14.48;;;5.93;;
72951;SDS011;61102;51.956;5.878;2023-05-10T01:30:18;14.77;;;6.55;;
72951;SDS011;61102;51.956;5.878;2023-05-10T01:35:51;15.95;;;6.95;;
72951;SDS011;61102;51.956;5.878;2023-05-10T01:38:32;20.45;;;8.07;;
72951;SDS011;61102;51.956;5.878;2023-05-10T01:41:24;14.60;;;6.18;;
72951;SDS011;61102;51.956;5.878;2023-05-10T01:44:15;15.60;;;7.13;;
72951;SDS011;61102;51.956;5.878;2023-05-10T01:47:01;19.00;;;7.25;;
72951;SDS011;61102;51.956;5.878;2023-05-10T01:49:37;17.58;;;6.53;;
72951;SDS011;61102;51.956;5.878;2023-05-10T01:52:12;14.25;;;6.07;;
72951;SDS011;61102;51.956;5.878;2023-05-10T01:54:43;15.82;;;5.88;;
72951;SDS011;61102;51.956;5.878;2023-05-10T01:57:14;16.65;;;6.57;;
72951;SDS011;61102;51.956;5.878;2023-05-10T01:59:43;17.55;;;7.13;;
72951;SDS011;61102;51.956;5.878;2023-05-10T02:02:11;16.73;;;6.07;;
72951;SDS011;61102;51.956;5.878;2023-05-10T02:04:39;14.48;;;5.53;;
72951;SDS011;61102;51.956;5.878;2023-05-10T02:07:06;15.98;;;6.32;;
72951;SDS011;61102;51.956;5.878;2023-05-10T02:09:34;15.55;;;5.68;;
72951;SDS011;61102;51.956;5.878;2023-05-10T02:12:05;15.48;;;5.75;;
72951;SDS011;61102;51.956;5.878;2023-05-10T02:14:34;14.90;;;6.05;;
72951;SDS011;61102;51.956;5.878;2023-05-10T02:17:02;16.10;;;5.95;;
72951;SDS011;61102;51.956;5.878;2023-05-10T02:19:31;17.80;;;6.68;;
72951;SDS011;61102;51.956;5.878;2023-05-10T02:24:25;16.52;;;6.00;;
72951;SDS011;61102;51.956;5.878;2023-05-10T02:26:53;16.73;;;6.13;;
72951;SDS011;61102;51.956;5.878;2023-05-10T02:29:24;15.05;;;5.50;;
72951;SDS011;61102;51.956;5.878;2023-05-10T02:31:54;18.10;;;6.55;;
72951;SDS011;61102;51.956;5.878;2023-05-10T02:34:21;15.93;;;6.35;;
72951;SDS011;61102;51.956;5.878;2023-05-10T02:36:49;18.02;;;7.07;;
72951;SDS011;61102;51.956;5.878;2023-05-10T02:39:18;19.63;;;7.60;;
72951;SDS011;61102;51.956;5.878;2023-05-10T02:41:46;21.67;;;8.55;;
72951;SDS011;61102;51.956;5.878;2023-05-10T02:44:14;16.50;;;6.30;;
72951;SDS011;61102;51.956;5.878;2023-05-10T02:46:41;18.98;;;7.75;;
72951;SDS011;61102;51.956;5.878;2023-05-10T02:49:07;23.35;;;9.15;;
72951;SDS011;61102;51.956;5.878;2023-05-10T02:51:34;20.42;;;8.30;;
72951;SDS011;61102;51.956;5.878;2023-05-10T02:54:10;20.73;;;8.18;;
72951;SDS011;61102;51.956;5.878;2023-05-10T02:56:43;23.02;;;9.05;;
72951;SDS011;61102;51.956;5.878;2023-05-10T02:59:37;18.33;;;7.53;;
72951;SDS011;61102;51.956;5.878;2023-05-10T03:02:03;24.23;;;8.50;;
72951;SDS011;61102;51.956;5.878;2023-05-10T03:04:30;19.75;;;8.07;;
72951;SDS011;61102;51.956;5.878;2023-05-10T03:06:57;24.27;;;9.60;;
72951;SDS011;61102;51.956;5.878;2023-05-10T03:09:24;26.55;;;10.80;;
72951;SDS011;61102;51.956;5.878;2023-05-10T03:11:55;19.45;;;8.05;;
72951;SDS011;61102;51.956;5.878;2023-05-10T03:14:47;20.63;;;8.85;;
72951;SDS011;61102;51.956;5.878;2023-05-10T03:20:36;19.10;;;8.48;;
72951;SDS011;61102;51.956;5.878;2023-05-10T03:23:12;23.20;;;9.88;;
72951;SDS011;61102;51.956;5.878;2023-05-10T03:25:44;24.30;;;9.98;;
72951;SDS011;61102;51.956;5.878;2023-05-10T03:28:14;25.42;;;10.18;;
72951;SDS011;61102;51.956;5.878;2023-05-10T03:30:42;18.42;;;8.00;;
72951;SDS011;61102;51.956;5.878;2023-05-10T03:33:11;18.15;;;7.95;;
72951;SDS011;61102;51.956;5.878;2023-05-10T03:35:41;21.15;;;8.77;;
72951;SDS011;61102;51.956;5.878;2023-05-10T03:38:10;22.00;;;9.57;;
72951;SDS011;61102;51.956;5.878;2023-05-10T03:40:39;22.02;;;10.10;;
72951;SDS011;61102;51.956;5.878;2023-05-10T03:43:07;22.73;;;9.50;;
72951;SDS011;61102;51.956;5.878;2023-05-10T03:45:33;20.05;;;8.70;;
72951;SDS011;61102;51.956;5.878;2023-05-10T03:48:02;27.38;;;11.73;;
72951;SDS011;61102;51.956;5.878;2023-05-10T03:50:28;25.45;;;10.45;;
72951;SDS011;61102;51.956;5.878;2023-05-10T03:52:55;25.60;;;10.32;;
72951;SDS011;61102;51.956;5.878;2023-05-10T03:55:21;19.88;;;8.05;;
72951;SDS011;61102;51.956;5.878;2023-05-10T03:57:48;26.10;;;9.98;;
72951;SDS011;61102;51.956;5.878;2023-05-10T04:00:20;22.38;;;9.65;;
72951;SDS011;61102;51.956;5.878;2023-05-10T04:02:52;23.35;;;9.45;;
72951;SDS011;61102;51.956;5.878;2023-05-10T04:05:19;21.67;;;9.38;;
72951;SDS011;61102;51.956;5.878;2023-05-10T04:07:46;22.23;;;8.60;;
72951;SDS011;61102;51.956;5.878;2023-05-10T04:10:12;20.05;;;7.55;;
72951;SDS011;61102;51.956;5.878;2023-05-10T04:12:41;21.08;;;8.77;;
72951;SDS011;61102;51.956;5.878;2023-05-10T04:15:07;19.90;;;8.52;;
72951;SDS011;61102;51.956;5.878;2023-05-10T04:17:37;16.65;;;7.05;;
72951;SDS011;61102;51.956;5.878;2023-05-10T04:20:03;18.98;;;8.10;;
72951;SDS011;61102;51.956;5.878;2023-05-10T04:22:30;18.35;;;8.13;;
72951;SDS011;61102;51.956;5.878;2023-05-10T04:24:57;17.40;;;7.30;;
72951;SDS011;61102;51.956;5.878;2023-05-10T04:27:24;17.52;;;6.90;;
72951;SDS011;61102;51.956;5.878;2023-05-10T04:29:50;18.20;;;7.82;;
72951;SDS011;61102;51.956;5.878;2023-05-10T04:32:16;17.17;;;7.38;;
72951;SDS011;61102;51.956;5.878;2023-05-10T04:34:46;16.13;;;6.85;;
72951;SDS011;61102;51.956;5.878;2023-05-10T04:37:12;18.95;;;7.50;;
72951;SDS011;61102;51.956;5.878;2023-05-10T04:39:39;23.70;;;9.63;;
72951;SDS011;61102;51.956;5.878;2023-05-10T04:42:05;18.33;;;8.02;;
72951;SDS011;61102;51.956;5.878;2023-05-10T04:44:31;18.65;;;7.90;;
72951;SDS011;61102;51.956;5.878;2023-05-10T04:46:58;17.15;;;7.38;;
72951;SDS011;61102;51.956;5.878;2023-05-10T04:49:24;20.25;;;7.93;;
72951;SDS011;61102;51.956;5.878;2023-05-10T04:51:55;18.90;;;7.45;;
72951;SDS011;61102;51.956;5.878;2023-05-10T04:54:22;18.17;;;7.10;;
72951;SDS011;61102;51.956;5.878;2023-05-10T04:56:48;21.15;;;7.20;;
72951;SDS011;61102;51.956;5.878;2023-05-10T04:59:14;18.83;;;7.45;;
72951;SDS011;61102;51.956;5.878;2023-05-10T05:01:40;15.82;;;6.00;;
72951;SDS011;61102;51.956;5.878;2023-05-10T05:04:06;19.52;;;7.47;;
72951;SDS011;61102;51.956;5.878;2023-05-10T05:06:33;16.92;;;6.97;;
72951;SDS011;61102;51.956;5.878;2023-05-10T05:08:59;19.25;;;7.95;;
72951;SDS011;61102;51.956;5.878;2023-05-10T05:11:26;18.65;;;8.05;;
72951;SDS011;61102;51.956;5.878;2023-05-10T05:13:53;18.35;;;7.18;;
72951;SDS011;61102;51.956;5.878;2023-05-10T05:16:19;18.38;;;7.80;;
72951;SDS011;61102;51.956;5.878;2023-05-10T05:18:45;16.73;;;6.75;;
72951;SDS011;61102;51.956;5.878;2023-05-10T05:21:16;18.08;;;7.43;;
72951;SDS011;61102;51.956;5.878;2023-05-10T05:23:43;17.33;;;6.47;;
72951;SDS011;61102;51.956;5.878;2023-05-10T05:26:09;20.60;;;8.95;;
72951;SDS011;61102;51.956;5.878;2023-05-10T05:28:36;18.63;;;8.02;;
72951;SDS011;61102;51.956;5.878;2023-05-10T05:31:06;21.88;;;8.85;;
72951;SDS011;61102;51.956;5.878;2023-05-10T05:33:33;20.90;;;8.40;;
72951;SDS011;61102;51.956;5.878;2023-05-10T05:36:00;19.05;;;7.50;;
72951;SDS011;61102;51.956;5.878;2023-05-10T05:38:27;22.80;;;8.88;;
72951;SDS011;61102;51.956;5.878;2023-05-10T05:40:54;20.67;;;8.38;;
72951;SDS011;61102;51.956;5.878;2023-05-10T05:43:23;20.85;;;9.02;;
72951;SDS011;61102;51.956;5.878;2023-05-10T05:45:52;21.48;;;8.27;;
72951;SDS011;61102;51.956;5.878;2023-05-10T05:48:19;18.25;;;7.38;;
72951;SDS011;61102;51.956;5.878;2023-05-10T05:50:45;18.67;;;7.15;;
72951;SDS011;61102;51.956;5.878;2023-05-10T05:53:12;26.15;;;9.35;;
72951;SDS011;61102;51.956;5.878;2023-05-10T05:55:38;19.05;;;7.50;;
72951;SDS011;61102;51.956;5.878;2023-05-10T05:58:04;21.77;;;8.35;;
72951;SDS011;61102;51.956;5.878;2023-05-10T06:00:30;22.50;;;8.93;;
72951;SDS011;61102;51.956;5.878;2023-05-10T06:02:57;22.70;;;9.00;;
72951;SDS011;61102;51.956;5.878;2023-05-10T06:05:23;24.30;;;10.43;;
72951;SDS011;61102;51.956;5.878;2023-05-10T06:07:49;22.42;;;8.55;;
72951;SDS011;61102;51.956;5.878;2023-05-10T06:10:25;19.90;;;7.82;;
72951;SDS011;61102;51.956;5.878;2023-05-10T06:12:51;20.70;;;8.18;;
72951;SDS011;61102;51.956;5.878;2023-05-10T06:15:18;21.05;;;8.52;;
72951;SDS011;61102;51.956;5.878;2023-05-10T06:17:44;17.50;;;6.40;;
72951;SDS011;61102;51.956;5.878;2023-05-10T06:20:12;19.48;;;8.18;;
72951;SDS011;61102;51.956;5.878;2023-05-10T06:22:39;23.00;;;9.55;;
72951;SDS011;61102;51.956;5.878;2023-05-10T06:25:05;15.98;;;6.38;;
72951;SDS011;61102;51.956;5.878;2023-05-10T06:27:32;18.58;;;7.43;;
72951;SDS011;61102;51.956;5.878;2023-05-10T06:29:58;21.00;;;9.52;;
72951;SDS011;61102;51.956;5.878;2023-05-10T06:32:27;21.55;;;8.82;;
72951;SDS011;61102;51.956;5.878;2023-05-10T06:34:54;20.02;;;8.98;;
72951;SDS011;61102;51.956;5.878;2023-05-10T06:37:20;14.93;;;5.70;;
72951;SDS011;61102;51.956;5.878;2023-05-10T06:39:46;19.08;;;8.55;;
72951;SDS011;61102;51.956;5.878;2023-05-10T06:42:13;21.67;;;7.80;;
72951;SDS011;61102;51.956;5.878;2023-05-10T06:44:39;18.40;;;6.93;;
72951;SDS011;61102;51.956;5.878;2023-05-10T06:47:05;20.33;;;7.78;;
72951;SDS011;61102;51.956;5.878;2023-05-10T06:49:31;26.42;;;12.02;;
72951;SDS011;61102;51.956;5.878;2023-05-10T06:51:58;24.98;;;10.80;;
72951;SDS011;61102;51.956;5.878;2023-05-10T06:54:24;26.77;;;11.10;;
72951;SDS011;61102;51.956;5.878;2023-05-10T06:56:50;23.50;;;9.65;;
72951;SDS011;61102;51.956;5.878;2023-05-10T06:59:29;29.23;;;11.20;;
72951;SDS011;61102;51.956;5.878;2023-05-10T07:01:55;21.95;;;9.45;;
72951;SDS011;61102;51.956;5.878;2023-05-10T07:04:21;20.92;;;8.93;;
72951;SDS011;61102;51.956;5.878;2023-05-10T07:06:47;21.45;;;8.98;;
72951;SDS011;61102;51.956;5.878;2023-05-10T07:09:15;20.60;;;8.80;;
72951;SDS011;61102;51.956;5.878;2023-05-10T07:11:41;22.73;;;9.73;;
72951;SDS011;61102;51.956;5.878;2023-05-10T07:14:07;19.45;;;8.82;;
72951;SDS011;61102;51.956;5.878;2023-05-10T07:16:33;24.92;;;9.55;;
72951;SDS011;61102;51.956;5.878;2023-05-10T07:19:00;27.77;;;12.80;;
72951;SDS011;61102;51.956;5.878;2023-05-10T07:21:26;26.85;;;11.40;;
72951;SDS011;61102;51.956;5.878;2023-05-10T07:23:54;22.38;;;9.50;;
72951;SDS011;61102;51.956;5.878;2023-05-10T07:26:20;21.40;;;9.18;;
72951;SDS011;61102;51.956;5.878;2023-05-10T07:28:47;18.77;;;7.63;;
72951;SDS011;61102;51.956;5.878;2023-05-10T07:31:13;28.42;;;11.15;;
72951;SDS011;61102;51.956;5.878;2023-05-10T07:33:39;32.50;;;11.98;;
72951;SDS011;61102;51.956;5.878;2023-05-10T07:36:05;24.95;;;9.88;;
72951;SDS011;61102;51.956;5.878;2023-05-10T07:38:32;30.35;;;11.90;;
72951;SDS011;61102;51.956;5.878;2023-05-10T07:41:02;24.85;;;10.30;;
72951;SDS011;61102;51.956;5.878;2023-05-10T07:43:29;23.63;;;9.88;;
72951;SDS011;61102;51.956;5.878;2023-05-10T07:45:57;25.23;;;10.27;;
72951;SDS011;61102;51.956;5.878;2023-05-10T07:48:25;29.80;;;11.88;;
72951;SDS011;61102;51.956;5.878;2023-05-10T07:50:52;27.52;;;11.02;;
72951;SDS011;61102;51.956;5.878;2023-05-10T07:53:18;31.25;;;13.07;;
72951;SDS011;61102;51.956;5.878;2023-05-10T07:55:44;24.15;;;9.80;;
72951;SDS011;61102;51.956;5.878;2023-05-10T07:58:16;21.58;;;8.25;;
72951;SDS011;61102;51.956;5.878;2023-05-10T08:00:42;23.75;;;9.10;;
72951;SDS011;61102;51.956;5.878;2023-05-10T08:03:08;33.63;;;14.85;;
72951;SDS011;61102;51.956;5.878;2023-05-10T08:05:34;29.38;;;12.63;;
72951;SDS011;61102;51.956;5.878;2023-05-10T08:08:01;29.75;;;12.75;;
72951;SDS011;61102;51.956;5.878;2023-05-10T08:10:27;22.73;;;10.02;;
72951;SDS011;61102;51.956;5.878;2023-05-10T08:12:53;26.23;;;10.23;;
72951;SDS011;61102;51.956;5.878;2023-05-10T08:15:20;26.70;;;11.38;;
72951;SDS011;61102;51.956;5.878;2023-05-10T08:17:46;29.38;;;12.48;;
72951;SDS011;61102;51.956;5.878;2023-05-10T08:20:12;25.73;;;11.40;;
72951;SDS011;61102;51.956;5.878;2023-05-10T08:22:42;20.85;;;8.77;;
72951;SDS011;61102;51.956;5.878;2023-05-10T08:25:08;22.52;;;10.82;;
72951;SDS011;61102;51.956;5.878;2023-05-10T08:27:35;22.60;;;10.30;;
72951;SDS011;61102;51.956;5.878;2023-05-10T08:30:01;26.45;;;10.90;;
72951;SDS011;61102;51.956;5.878;2023-05-10T08:32:27;21.95;;;10.82;;
72951;SDS011;61102;51.956;5.878;2023-05-10T08:34:54;20.73;;;9.60;;
72951;SDS011;61102;51.956;5.878;2023-05-10T08:37:22;23.23;;;10.57;;
72951;SDS011;61102;51.956;5.878;2023-05-10T08:39:52;23.20;;;10.13;;
72951;SDS011;61102;51.956;5.878;2023-05-10T08:42:19;17.05;;;7.75;;
72951;SDS011;61102;51.956;5.878;2023-05-10T08:44:49;18.52;;;8.77;;
72951;SDS011;61102;51.956;5.878;2023-05-10T08:47:16;19.15;;;8.73;;
72951;SDS011;61102;51.956;5.878;2023-05-10T08:49:44;19.20;;;8.75;;
72951;SDS011;61102;51.956;5.878;2023-05-10T08:52:17;15.23;;;7.10;;
72951;SDS011;61102;51.956;5.878;2023-05-10T08:54:43;16.35;;;5.88;;
72951;SDS011;61102;51.956;5.878;2023-05-10T08:57:10;14.75;;;6.22;;
72951;SDS011;61102;51.956;5.878;2023-05-10T08:59:36;12.80;;;5.55;;
72951;SDS011;61102;51.956;5.878;2023-05-10T09:02:05;12.68;;;5.35;;
72951;SDS011;61102;51.956;5.878;2023-05-10T09:04:31;12.32;;;4.85;;
72951;SDS011;61102;51.956;5.878;2023-05-10T09:06:58;12.40;;;5.07;;
72951;SDS011;61102;51.956;5.878;2023-05-10T09:09:25;9.82;;;4.10;;
72951;SDS011;61102;51.956;5.878;2023-05-10T09:11:52;10.05;;;4.50;;
72951;SDS011;61102;51.956;5.878;2023-05-10T09:14:19;9.52;;;4.43;;
72951;SDS011;61102;51.956;5.878;2023-05-10T09:16:45;13.95;;;5.43;;
72951;SDS011;61102;51.956;5.878;2023-05-10T09:19:12;8.40;;;3.65;;
72951;SDS011;61102;51.956;5.878;2023-05-10T09:21:39;9.35;;;4.18;;
72951;SDS011;61102;51.956;5.878;2023-05-10T09:24:06;8.90;;;3.88;;
72951;SDS011;61102;51.956;5.878;2023-05-10T09:26:34;8.30;;;3.22;;
72951;SDS011;61102;51.956;5.878;2023-05-10T09:29:01;8.90;;;3.00;;
72951;SDS011;61102;51.956;5.878;2023-05-10T09:31:42;7.85;;;3.22;;
72951;SDS011;61102;51.956;5.878;2023-05-10T09:34:17;7.95;;;3.50;;
72951;SDS011;61102;51.956;5.878;2023-05-10T09:36:53;7.38;;;3.00;;
72951;SDS011;61102;51.956;5.878;2023-05-10T09:39:33;9.23;;;3.55;;
72951;SDS011;61102;51.956;5.878;2023-05-10T09:42:04;8.95;;;3.47;;
72951;SDS011;61102;51.956;5.878;2023-05-10T09:44:32;7.40;;;3.67;;
72951;SDS011;61102;51.956;5.878;2023-05-10T09:47:02;9.15;;;3.80;;
72951;SDS011;61102;51.956;5.878;2023-05-10T09:49:29;9.90;;;4.10;;
72951;SDS011;61102;51.956;5.878;2023-05-10T09:52:00;9.38;;;4.07;;
72951;SDS011;61102;51.956;5.878;2023-05-10T09:54:28;9.40;;;3.90;;
72951;SDS011;61102;51.956;5.878;2023-05-10T09:56:54;7.53;;;3.25;;
72951;SDS011;61102;51.956;5.878;2023-05-10T09:59:26;8.38;;;3.45;;
72951;SDS011;61102;51.956;5.878;2023-05-10T10:01:55;8.02;;;3.08;;
72951;SDS011;61102;51.956;5.878;2023-05-10T10:04:23;7.32;;;2.90;;
72951;SDS011;61102;51.956;5.878;2023-05-10T10:06:59;7.13;;;2.60;;
72951;SDS011;61102;51.956;5.878;2023-05-10T10:09:33;6.63;;;2.50;;
72951;SDS011;61102;51.956;5.878;2023-05-10T10:12:01;6.15;;;2.15;;
72951;SDS011;61102;51.956;5.878;2023-05-10T10:14:28;6.82;;;2.80;;
72951;SDS011;61102;51.956;5.878;2023-05-10T10:17:02;6.22;;;2.35;;
72951;SDS011;61102;51.956;5.878;2023-05-10T10:19:29;7.45;;;2.65;;
72951;SDS011;61102;51.956;5.878;2023-05-10T10:21:58;6.63;;;2.30;;
72951;SDS011;61102;51.956;5.878;2023-05-10T10:24:26;6.68;;;2.00;;
72951;SDS011;61102;51.956;5.878;2023-05-10T10:26:52;8.35;;;3.20;;
72951;SDS011;61102;51.956;5.878;2023-05-10T10:29:30;6.68;;;2.63;;
72951;SDS011;61102;51.956;5.878;2023-05-10T10:32:09;10.10;;;4.85;;
72951;SDS011;61102;51.956;5.878;2023-05-10T10:34:46;8.85;;;3.75;;
72951;SDS011;61102;51.956;5.878;2023-05-10T10:37:13;10.52;;;5.05;;
72951;SDS011;61102;51.956;5.878;2023-05-10T10:39:39;10.25;;;4.43;;
72951;SDS011;61102;51.956;5.878;2023-05-10T10:42:06;8.75;;;3.97;;
72951;SDS011;61102;51.956;5.878;2023-05-10T10:49:48;9.57;;;4.40;;
72951;SDS011;61102;51.956;5.878;2023-05-10T10:52:30;7.70;;;3.05;;
72951;SDS011;61102;51.956;5.878;2023-05-10T10:55:12;9.13;;;4.00;;
72951;SDS011;61102;51.956;5.878;2023-05-10T11:02:58;7.55;;;3.20;;
72951;SDS011;61102;51.956;5.878;2023-05-10T11:05:44;8.32;;;3.42;;
72951;SDS011;61102;51.956;5.878;2023-05-10T11:08:15;9.65;;;4.28;;
72951;SDS011;61102;51.956;5.878;2023-05-10T11:11:03;9.48;;;4.05;;
72951;SDS011;61102;51.956;5.878;2023-05-10T11:13:35;8.43;;;3.50;;
72951;SDS011;61102;51.956;5.878;2023-05-10T11:19:10;7.55;;;3.00;;
72951;SDS011;61102;51.956;5.878;2023-05-10T11:21:50;7.30;;;3.05;;
72951;SDS011;61102;51.956;5.878;2023-05-10T11:24:38;7.80;;;3.28;;
72951;SDS011;61102;51.956;5.878;2023-05-10T11:27:05;9.77;;;4.30;;
72951;SDS011;61102;51.956;5.878;2023-05-10T11:29:32;8.90;;;3.45;;
72951;SDS011;61102;51.956;5.878;2023-05-10T11:31:58;7.32;;;2.75;;
72951;SDS011;61102;51.956;5.878;2023-05-10T11:36:53;9.00;;;4.10;;
72951;SDS011;61102;51.956;5.878;2023-05-10T11:39:20;7.68;;;2.83;;
72951;SDS011;61102;51.956;5.878;2023-05-10T11:41:50;7.45;;;3.13;;
72951;SDS011;61102;51.956;5.878;2023-05-10T11:44:20;8.35;;;3.58;;
72951;SDS011;61102;51.956;5.878;2023-05-10T11:46:46;7.75;;;2.50;;
72951;SDS011;61102;51.956;5.878;2023-05-10T11:49:12;7.90;;;3.13;;
72951;SDS011;61102;51.956;5.878;2023-05-10T11:51:39;7.78;;;3.17;;
72951;SDS011;61102;51.956;5.878;2023-05-10T11:54:06;7.03;;;3.40;;
72951;SDS011;61102;51.956;5.878;2023-05-10T11:56:37;8.52;;;3.10;;
72951;SDS011;61102;51.956;5.878;2023-05-10T11:59:06;7.45;;;2.92;;
72951;SDS011;61102;51.956;5.878;2023-05-10T12:01:33;7.22;;;2.60;;
72951;SDS011;61102;51.956;5.878;2023-05-10T12:04:00;6.00;;;2.30;;
72951;SDS011;61102;51.956;5.878;2023-05-10T12:06:27;7.18;;;2.65;;
72951;SDS011;61102;51.956;5.878;2023-05-10T12:08:56;7.60;;;2.53;;
72951;SDS011;61102;51.956;5.878;2023-05-10T12:11:28;7.95;;;3.33;;
72951;SDS011;61102;51.956;5.878;2023-05-10T12:13:54;7.43;;;2.83;;
72951;SDS011;61102;51.956;5.878;2023-05-10T12:16:22;5.90;;;2.17;;
72951;SDS011;61102;51.956;5.878;2023-05-10T12:18:56;7.18;;;2.40;;
72951;SDS011;61102;51.956;5.878;2023-05-10T12:21:23;5.55;;;2.10;;
72951;SDS011;61102;51.956;5.878;2023-05-10T12:23:50;5.50;;;1.80;;
72951;SDS011;61102;51.956;5.878;2023-05-10T12:26:18;7.80;;;2.58;;
72951;SDS011;61102;51.956;5.878;2023-05-10T12:28:49;7.35;;;2.55;;
72951;SDS011;61102;51.956;5.878;2023-05-10T12:31:16;7.32;;;2.20;;
72951;SDS011;61102;51.956;5.878;2023-05-10T12:33:43;6.57;;;2.15;;
72951;SDS011;61102;51.956;5.878;2023-05-10T12:36:10;7.15;;;2.70;;
72951;SDS011;61102;51.956;5.878;2023-05-10T12:38:39;4.97;;;1.70;;
72951;SDS011;61102;51.956;5.878;2023-05-10T12:41:10;5.53;;;1.80;;
72951;SDS011;61102;51.956;5.878;2023-05-10T12:43:38;6.13;;;1.95;;
72951;SDS011;61102;51.956;5.878;2023-05-10T12:48:33;6.85;;;2.78;;
72951;SDS011;61102;51.956;5.878;2023-05-10T12:51:03;4.57;;;1.73;;
72951;SDS011;61102;51.956;5.878;2023-05-10T12:53:29;6.25;;;1.70;;
72951;SDS011;61102;51.956;5.878;2023-05-10T12:55:56;4.93;;;1.67;;
72951;SDS011;61102;51.956;5.878;2023-05-10T12:58:23;4.75;;;1.65;;
72951;SDS011;61102;51.956;5.878;2023-05-10T13:00:49;5.00;;;1.80;;
72951;SDS011;61102;51.956;5.878;2023-05-10T13:03:20;4.20;;;1.60;;
72951;SDS011;61102;51.956;5.878;2023-05-10T13:05:46;5.97;;;2.00;;
72951;SDS011;61102;51.956;5.878;2023-05-10T13:08:12;5.20;;;1.88;;
72951;SDS011;61102;51.956;5.878;2023-05-10T13:10:38;4.85;;;1.67;;
72951;SDS011;61102;51.956;5.878;2023-05-10T13:13:05;5.68;;;1.80;;
72951;SDS011;61102;51.956;5.878;2023-05-10T13:15:31;5.90;;;1.98;;
72951;SDS011;61102;51.956;5.878;2023-05-10T13:17:57;4.97;;;1.80;;
72951;SDS011;61102;51.956;5.878;2023-05-10T13:20:24;6.75;;;2.53;;
72951;SDS011;61102;51.956;5.878;2023-05-10T13:22:50;4.80;;;1.70;;
72951;SDS011;61102;51.956;5.878;2023-05-10T13:25:20;3.67;;;1.35;;
72951;SDS011;61102;51.956;5.878;2023-05-10T13:27:46;4.03;;;1.38;;
72951;SDS011;61102;51.956;5.878;2023-05-10T13:30:12;4.07;;;1.33;;
72951;SDS011;61102;51.956;5.878;2023-05-10T13:32:38;4.40;;;1.55;;
72951;SDS011;61102;51.956;5.878;2023-05-10T13:35:05;7.10;;;2.22;;
72951;SDS011;61102;51.956;5.878;2023-05-10T13:37:34;4.90;;;1.73;;
72951;SDS011;61102;51.956;5.878;2023-05-10T13:40:05;4.90;;;1.75;;
72951;SDS011;61102;51.956;5.878;2023-05-10T13:42:32;5.18;;;2.00;;
72951;SDS011;61102;51.956;5.878;2023-05-10T13:44:59;7.25;;;2.10;;
72951;SDS011;61102;51.956;5.878;2023-05-10T13:47:27;5.00;;;2.00;;
72951;SDS011;61102;51.956;5.878;2023-05-10T13:49:53;4.18;;;1.70;;
72951;SDS011;61102;51.956;5.878;2023-05-10T13:52:20;3.42;;;1.38;;
72951;SDS011;61102;51.956;5.878;2023-05-10T13:54:47;5.28;;;1.88;;
72951;SDS011;61102;51.956;5.878;2023-05-10T13:57:13;6.05;;;2.30;;
72951;SDS011;61102;51.956;5.878;2023-05-10T13:59:39;5.40;;;2.03;;
72951;SDS011;61102;51.956;5.878;2023-05-10T14:02:05;4.85;;;1.98;;
72951;SDS011;61102;51.956;5.878;2023-05-10T14:04:32;6.75;;;2.85;;
72951;SDS011;61102;51.956;5.878;2023-05-10T14:06:59;6.95;;;2.58;;
72951;SDS011;61102;51.956;5.878;2023-05-10T14:09:26;6.90;;;3.08;;
72951;SDS011;61102;51.956;5.878;2023-05-10T14:11:52;6.50;;;2.63;;
72951;SDS011;61102;51.956;5.878;2023-05-10T14:14:18;6.47;;;3.10;;
72951;SDS011;61102;51.956;5.878;2023-05-10T14:16:44;7.13;;;3.45;;
72951;SDS011;61102;51.956;5.878;2023-05-10T14:19:11;7.07;;;2.85;;
72951;SDS011;61102;51.956;5.878;2023-05-10T14:21:37;5.43;;;2.45;;
72951;SDS011;61102;51.956;5.878;2023-05-10T14:24:04;7.88;;;3.20;;
72951;SDS011;61102;51.956;5.878;2023-05-10T14:26:30;6.22;;;2.90;;
72951;SDS011;61102;51.956;5.878;2023-05-10T14:28:56;5.88;;;2.25;;
72951;SDS011;61102;51.956;5.878;2023-05-10T14:31:23;6.25;;;2.70;;
72951;SDS011;61102;51.956;5.878;2023-05-10T14:33:51;5.60;;;1.92;;
72951;SDS011;61102;51.956;5.878;2023-05-10T14:36:17;4.95;;;2.10;;
72951;SDS011;61102;51.956;5.878;2023-05-10T14:38:43;5.60;;;2.40;;
72951;SDS011;61102;51.956;5.878;2023-05-10T14:41:09;5.68;;;2.05;;
72951;SDS011;61102;51.956;5.878;2023-05-10T14:43:39;5.25;;;1.90;;
72951;SDS011;61102;51.956;5.878;2023-05-10T14:46:07;3.83;;;1.40;;
72951;SDS011;61102;51.956;5.878;2023-05-10T14:48:33;3.70;;;1.50;;
72951;SDS011;61102;51.956;5.878;2023-05-10T14:50:59;4.60;;;1.52;;
72951;SDS011;61102;51.956;5.878;2023-05-10T14:53:25;3.78;;;1.48;;
72951;SDS011;61102;51.956;5.878;2023-05-10T14:56:10;4.72;;;1.60;;
72951;SDS011;61102;51.956;5.878;2023-05-10T14:59:41;3.35;;;1.20;;
72951;SDS011;61102;51.956;5.878;2023-05-10T15:02:07;4.32;;;1.20;;
72951;SDS011;61102;51.956;5.878;2023-05-10T15:04:34;3.45;;;1.10;;
72951;SDS011;61102;51.956;5.878;2023-05-10T15:07:00;5.30;;;1.75;;
72951;SDS011;61102;51.956;5.878;2023-05-10T15:09:26;3.65;;;1.08;;
72951;SDS011;61102;51.956;5.878;2023-05-10T15:11:53;5.40;;;1.77;;
72951;SDS011;61102;51.956;5.878;2023-05-10T15:16:46;3.65;;;1.08;;
72951;SDS011;61102;51.956;5.878;2023-05-10T15:19:15;2.78;;;0.82;;
72951;SDS011;61102;51.956;5.878;2023-05-10T15:21:41;2.15;;;0.80;;